»·PEaware :: WJA175 KSAN-KLAS

WJA175 :: KSAN-KLAS

FLIGHT INFORMATION

Flight Status: Arrived
Operator:
Westjet Airlines
More flights by this operator :: More flights under this callsign
Pilot: Anonymous 18885 (18885)
Aircraft: BOEING 737-800
(B738)
More flights by this aircraft type
Origin: KSAN San Diego Intl-Lindbergh
United States
Destination: KLAS McCarran Intl
United States
More flights between these airports :: More routes between these airports
Route: PADRZ2 CHKNN SEBBY YELAH MISEN KEPEC6
File this flight plan on PilotEdge
Remarks: This is my first flight on PilotEdge, I have an experienced Pilotedge user helping me
Altitude:
(Current/Filed)
29,000ft
Speed:
(Current/Filed)
475kts
Departed: 14-Apr-18 12:23 PM
Arrived: 14-Apr-18 01:37 PM
Distance/Time
Traveled:
225nm/1:14
Distance/Time
To Go:
Arrived

Flight Plot

Page will automatically refresh every two minutes.

Flight plan parsing failed; only flown route is shown


Map Options




Map Legend


Flown Route
Filed Route
Departure Airport
Arrival Airport
Navaid (VOR, NDB)
Fix

Horizontal Profiles

Position Reports

Time Latitude Longitude Heading Altitude Ground
Speed
14-Apr-18 11:37 32.733267 -117.196042 199 18ft 0kts
14-Apr-18 11:38 32.733267 -117.196042 199 18ft 0kts
14-Apr-18 11:39 32.733267 -117.196042 199 18ft 0kts
14-Apr-18 11:40 32.733267 -117.196042 199 18ft 0kts
14-Apr-18 11:41 32.733267 -117.196042 199 18ft 0kts
14-Apr-18 11:42 32.733267 -117.196042 199 18ft 0kts
14-Apr-18 11:43 32.733267 -117.196042 199 18ft 0kts
14-Apr-18 11:44 32.733267 -117.196042 199 18ft 0kts
14-Apr-18 11:45 32.733267 -117.196042 199 18ft 0kts
14-Apr-18 11:46 32.733267 -117.196042 199 18ft 0kts
14-Apr-18 11:47 32.733267 -117.196042 199 18ft 0kts
14-Apr-18 11:48 32.733267 -117.196042 199 18ft 0kts
14-Apr-18 11:49 32.733267 -117.196042 199 18ft 0kts
14-Apr-18 11:50 32.733267 -117.196042 199 18ft 0kts
14-Apr-18 11:51 32.733267 -117.196042 199 18ft 0kts
14-Apr-18 11:52 32.733267 -117.196042 199 18ft 0kts
14-Apr-18 11:53 32.733267 -117.196042 199 18ft 0kts
14-Apr-18 11:54 32.733267 -117.196042 199 18ft 0kts
14-Apr-18 11:55 32.733267 -117.196042 199 18ft 0kts
14-Apr-18 11:56 32.733267 -117.196042 199 18ft 0kts
14-Apr-18 11:57 32.733267 -117.196042 199 18ft 0kts
14-Apr-18 11:58 32.733267 -117.196042 199 18ft 0kts
14-Apr-18 11:59 32.733267 -117.196042 199 18ft 0kts
14-Apr-18 12:00 32.733267 -117.196042 199 18ft 0kts
14-Apr-18 12:01 32.733267 -117.196042 199 18ft 0kts
14-Apr-18 12:02 32.733267 -117.196042 199 18ft 0kts
14-Apr-18 12:03 32.733267 -117.196042 199 18ft 0kts
14-Apr-18 12:04 32.733267 -117.196042 199 18ft 0kts
14-Apr-18 12:05 32.733267 -117.196042 199 18ft 0kts
14-Apr-18 12:06 32.733553 -117.196031 159 18ft 2kts
14-Apr-18 12:07 32.733808 -117.196379 104 17ft 1kts
14-Apr-18 12:08 32.733812 -117.196398 105 17ft 0kts
14-Apr-18 12:09 32.733812 -117.196398 105 17ft 0kts
14-Apr-18 12:10 32.733796 -117.196327 105 17ft 3kts
14-Apr-18 12:11 32.733602 -117.194098 105 21ft 11kts
14-Apr-18 12:12 32.732433 -117.189195 105 18ft 13kts
14-Apr-18 12:13 32.731346 -117.184774 104 18ft 11kts
14-Apr-18 12:14 32.730570 -117.181573 106 18ft 14kts
14-Apr-18 12:15 32.729815 -117.178423 105 21ft 1kts
14-Apr-18 12:16 32.729808 -117.178390 105 21ft 0kts
14-Apr-18 12:17 32.729565 -117.177458 105 22ft 6kts
14-Apr-18 12:18 32.729524 -117.177281 104 22ft 0kts
14-Apr-18 12:19 32.729591 -117.176469 71 23ft 5kts
14-Apr-18 12:20 32.729818 -117.175938 38 24ft 2kts
14-Apr-18 12:21 32.730341 -117.176535 285 24ft 16kts
14-Apr-18 12:22 32.741127 -117.218272 288 1770ft 167kts
14-Apr-18 12:23 32.771923 -117.274784 307 3403ft 261kts
14-Apr-18 12:24 32.813565 -117.340312 308 6604ft 280kts
14-Apr-18 12:25 32.861303 -117.414390 309 10122ft 287kts
14-Apr-18 12:26 32.913293 -117.495075 309 12803ft 319kts
14-Apr-18 12:27 32.965946 -117.577034 309 15102ft 336kts
14-Apr-18 12:28 33.017413 -117.657344 308 17963ft 336kts
14-Apr-18 12:29 33.076058 -117.744582 318 20581ft 343kts
14-Apr-18 12:30 33.132789 -117.802070 318 22401ft 351kts
14-Apr-18 12:31 33.208146 -117.877727 319 24630ft 360kts
14-Apr-18 12:32 33.286495 -117.953746 319 26605ft 369kts
14-Apr-18 12:33 33.383404 -117.985483 10 28312ft 397kts
14-Apr-18 12:34 33.479549 -117.912694 31 29268ft 432kts
14-Apr-18 12:35 33.579013 -117.822542 32 29259ft 460kts
14-Apr-18 12:36 33.680519 -117.730063 32 29260ft 461kts
14-Apr-18 12:37 33.782107 -117.637220 32 29271ft 461kts
14-Apr-18 12:38 33.884015 -117.543797 32 29277ft 461kts
14-Apr-18 12:39 33.985931 -117.450077 32 29283ft 461kts
14-Apr-18 12:40 34.087660 -117.356242 32 29292ft 461kts
14-Apr-18 12:41 34.177425 -117.273194 32 29293ft 462kts
14-Apr-18 12:42 34.278842 -117.179085 32 29296ft 462kts
14-Apr-18 12:43 34.380559 -117.084397 32 29296ft 460kts
14-Apr-18 12:44 34.481114 -116.990478 32 29335ft 456kts
14-Apr-18 12:45 34.580659 -116.897223 32 29349ft 452kts
14-Apr-18 12:46 34.679890 -116.804002 32 29347ft 451kts
14-Apr-18 12:47 34.778731 -116.710868 32 29346ft 451kts
14-Apr-18 12:48 34.877417 -116.617590 32 29346ft 450kts
14-Apr-18 12:49 34.972906 -116.526894 32 27472ft 420kts
14-Apr-18 12:50 35.062110 -116.442061 31 25236ft 398kts
14-Apr-18 12:51 35.137294 -116.362452 39 24375ft 397kts
14-Apr-18 12:52 35.211607 -116.268852 40 24366ft 398kts
14-Apr-18 12:53 35.288608 -116.171739 40 24366ft 398kts
14-Apr-18 12:54 35.365708 -116.074352 40 24366ft 398kts
14-Apr-18 12:55 35.443566 -115.975835 41 21983ft 404kts
14-Apr-18 12:56 35.520750 -115.877863 41 19102ft 398kts
14-Apr-18 12:57 35.596741 -115.781164 42 16213ft 391kts
14-Apr-18 12:58 35.671084 -115.686320 43 13394ft 381kts
14-Apr-18 12:59 35.737743 -115.600886 43 13134ft 310kts
14-Apr-18 13:00 35.813956 -115.572311 0 13154ft 292kts
14-Apr-18 13:01 35.894962 -115.567738 0 13147ft 292kts
14-Apr-18 13:02 35.972229 -115.543826 42 12986ft 302kts
14-Apr-18 13:03 36.008123 -115.451600 66 11915ft 293kts
14-Apr-18 13:04 36.033127 -115.359870 88 10967ft 277kts
14-Apr-18 13:05 36.025763 -115.270320 94 9871ft 271kts
14-Apr-18 13:06 36.018411 -115.179622 93 8900ft 260kts
14-Apr-18 13:07 36.012170 -115.093508 92 8181ft 243kts
14-Apr-18 13:08 36.006955 -115.011790 90 8081ft 237kts
14-Apr-18 13:09 36.001996 -114.930860 90 8072ft 236kts
14-Apr-18 13:10 35.997041 -114.849816 88 8070ft 235kts
14-Apr-18 13:11 36.030652 -114.786904 17 8049ft 223kts
14-Apr-18 13:12 36.071633 -114.832793 270 8028ft 248kts
14-Apr-18 13:13 36.068738 -114.927922 280 5395ft 298kts
14-Apr-18 13:14 36.080450 -115.022604 281 5054ft 253kts
14-Apr-18 13:15 36.090004 -115.101076 267 5050ft 211kts
14-Apr-18 13:16 36.081081 -115.172247 261 5060ft 195kts
14-Apr-18 13:17 36.072664 -115.235395 261 5097ft 182kts
14-Apr-18 13:18 36.077615 -115.295406 291 5107ft 178kts
14-Apr-18 13:19 36.094368 -115.353669 282 5080ft 180kts
14-Apr-18 13:20 36.129430 -115.371042 48 5115ft 172kts
14-Apr-18 13:21 36.142798 -115.313911 81 5076ft 175kts
14-Apr-18 13:22 36.143342 -115.256534 131 5092ft 169kts
14-Apr-18 13:23 36.100755 -115.247457 189 5128ft 173kts
14-Apr-18 13:24 36.061672 -115.224734 79 5118ft 174kts
14-Apr-18 13:25 36.069708 -115.166614 87 4632ft 162kts
14-Apr-18 13:26 36.074928 -115.109658 78 5034ft 169kts
14-Apr-18 13:27 36.081257 -115.051710 81 5088ft 165kts
14-Apr-18 13:28 36.087794 -114.996060 64 5109ft 160kts
14-Apr-18 13:29 36.102630 -114.942513 70 5058ft 164kts
14-Apr-18 13:30 36.115491 -114.889022 93 5052ft 167kts
14-Apr-18 13:31 36.078057 -114.874534 238 5203ft 182kts
14-Apr-18 13:32 36.072205 -114.939676 273 4272ft 202kts
14-Apr-18 13:33 36.072735 -115.009849 272 3361ft 210kts
14-Apr-18 13:34 36.072786 -115.075909 272 2961ft 178kts
14-Apr-18 13:35 36.073646 -115.131903 270 2062ft 136kts
14-Apr-18 13:36 36.074595 -115.150290 300 2118ft 13kts
14-Apr-18 13:37 36.078017 -115.152394 67 2121ft 9kts
14-Apr-18 13:38 36.078551 -115.147712 50 2101ft 19kts
14-Apr-18 13:39 36.079505 -115.146693 23 2095ft 0kts
14-Apr-18 13:40 36.079505 -115.146693 23 2095ft 0kts
14-Apr-18 13:42 36.079505 -115.146693 23 2095ft 0kts

Navigation Log

Ident Type
Flight plan parsing failed, navigation log unavailable